Oxford, United Kingdom
Current Conditions -  °F | °C
As of 12:20 PM on Friday 28 Nov 2014 (Local Time) from EGTK Reporting Station
Overcast Overcast  
Wind Chill: 52°   Ceiling: 700
Heat Index: 52°   Visibility: 4mi
Dew Point: 52°   Wind: 9mph
Humidity: 100%   Direction: 60°ENE
Pressure: 29.59"   Gusts: NA
Location:  51.75°N, 1.26°W
Report Text: EGTK 281220Z 06008KT 7000 SCT006 BKN007 OVC009 11/11 Q1002
Loading
Personal Weather Stations






























Interactive Weather Map New forecast layout! Learn more

10-Day Weather Forecast

Advertisements
Track Severe Weather on mobile